sensor_id;sensor_type;location;lat;lon;timestamp;P1;durP1;ratioP1;P2;durP2;ratioP2
23634;SDS011;11994;51.038;16.974;2023-05-29T00:01:12;12.40;;;4.30;;
23634;SDS011;11994;51.038;16.974;2023-05-29T00:03:37;17.50;;;4.80;;
23634;SDS011;11994;51.038;16.974;2023-05-29T00:06:02;8.40;;;4.30;;
23634;SDS011;11994;51.038;16.974;2023-05-29T00:08:28;10.70;;;4.50;;
23634;SDS011;11994;51.038;16.974;2023-05-29T00:10:54;8.50;;;4.40;;
23634;SDS011;11994;51.038;16.974;2023-05-29T00:13:19;9.30;;;4.60;;
23634;SDS011;11994;51.038;16.974;2023-05-29T00:15:46;12.60;;;4.30;;
23634;SDS011;11994;51.038;16.974;2023-05-29T00:18:12;12.00;;;4.80;;
23634;SDS011;11994;51.038;16.974;2023-05-29T00:20:37;13.70;;;5.10;;
23634;SDS011;11994;51.038;16.974;2023-05-29T00:23:03;9.60;;;4.80;;
23634;SDS011;11994;51.038;16.974;2023-05-29T00:25:30;9.20;;;4.80;;
23634;SDS011;11994;51.038;16.974;2023-05-29T00:27:56;8.50;;;5.10;;
23634;SDS011;11994;51.038;16.974;2023-05-29T00:30:21;11.50;;;5.80;;
23634;SDS011;11994;51.038;16.974;2023-05-29T00:32:47;11.50;;;5.20;;
23634;SDS011;11994;51.038;16.974;2023-05-29T00:35:12;13.10;;;5.60;;
23634;SDS011;11994;51.038;16.974;2023-05-29T00:37:38;9.80;;;5.80;;
23634;SDS011;11994;51.038;16.974;2023-05-29T00:40:03;9.20;;;5.10;;
23634;SDS011;11994;51.038;16.974;2023-05-29T00:42:29;11.80;;;5.50;;
23634;SDS011;11994;51.038;16.974;2023-05-29T00:44:54;13.10;;;5.30;;
23634;SDS011;11994;51.038;16.974;2023-05-29T00:47:20;23.90;;;6.80;;
23634;SDS011;11994;51.038;16.974;2023-05-29T00:49:45;10.20;;;5.80;;
23634;SDS011;11994;51.038;16.974;2023-05-29T00:52:11;12.00;;;5.70;;
23634;SDS011;11994;51.038;16.974;2023-05-29T00:54:37;11.40;;;5.20;;
23634;SDS011;11994;51.038;16.974;2023-05-29T00:57:03;12.70;;;5.00;;
23634;SDS011;11994;51.038;16.974;2023-05-29T00:59:32;11.80;;;5.10;;
23634;SDS011;11994;51.038;16.974;2023-05-29T01:20:24;8.60;;;4.70;;
23634;SDS011;11994;51.038;16.974;2023-05-29T01:28:32;12.50;;;4.70;;
23634;SDS011;11994;51.038;16.974;2023-05-29T01:31:04;12.30;;;4.70;;
23634;SDS011;11994;51.038;16.974;2023-05-29T01:33:32;11.70;;;4.70;;
23634;SDS011;11994;51.038;16.974;2023-05-29T01:35:58;9.70;;;4.60;;
23634;SDS011;11994;51.038;16.974;2023-05-29T01:47:46;8.60;;;4.90;;
23634;SDS011;11994;51.038;16.974;2023-05-29T01:50:13;9.80;;;4.80;;
23634;SDS011;11994;51.038;16.974;2023-05-29T01:52:43;9.80;;;5.10;;
23634;SDS011;11994;51.038;16.974;2023-05-29T01:55:08;11.80;;;4.90;;
23634;SDS011;11994;51.038;16.974;2023-05-29T01:57:33;10.50;;;5.10;;
23634;SDS011;11994;51.038;16.974;2023-05-29T02:00:02;12.80;;;4.60;;
23634;SDS011;11994;51.038;16.974;2023-05-29T02:02:36;8.60;;;4.70;;
23634;SDS011;11994;51.038;16.974;2023-05-29T02:15:34;9.70;;;5.30;;
23634;SDS011;11994;51.038;16.974;2023-05-29T02:17:59;10.30;;;5.00;;
23634;SDS011;11994;51.038;16.974;2023-05-29T02:20:26;13.20;;;5.60;;
23634;SDS011;11994;51.038;16.974;2023-05-29T02:22:52;11.70;;;5.90;;
23634;SDS011;11994;51.038;16.974;2023-05-29T02:25:17;13.30;;;5.00;;
23634;SDS011;11994;51.038;16.974;2023-05-29T02:27:43;11.60;;;4.70;;
23634;SDS011;11994;51.038;16.974;2023-05-29T02:30:08;13.50;;;5.30;;
23634;SDS011;11994;51.038;16.974;2023-05-29T02:32:34;7.90;;;5.10;;
23634;SDS011;11994;51.038;16.974;2023-05-29T02:34:59;10.30;;;4.70;;
23634;SDS011;11994;51.038;16.974;2023-05-29T02:37:25;12.00;;;5.50;;
23634;SDS011;11994;51.038;16.974;2023-05-29T02:39:51;10.00;;;5.20;;
23634;SDS011;11994;51.038;16.974;2023-05-29T02:42:17;9.90;;;5.20;;
23634;SDS011;11994;51.038;16.974;2023-05-29T02:44:42;14.50;;;5.30;;
23634;SDS011;11994;51.038;16.974;2023-05-29T02:47:08;11.80;;;5.10;;
23634;SDS011;11994;51.038;16.974;2023-05-29T02:49:34;10.80;;;5.40;;
23634;SDS011;11994;51.038;16.974;2023-05-29T02:51:59;9.10;;;5.20;;
23634;SDS011;11994;51.038;16.974;2023-05-29T02:54:24;13.80;;;5.10;;
23634;SDS011;11994;51.038;16.974;2023-05-29T02:56:53;11.30;;;5.30;;
23634;SDS011;11994;51.038;16.974;2023-05-29T02:59:19;11.10;;;4.90;;
23634;SDS011;11994;51.038;16.974;2023-05-29T03:01:45;12.10;;;5.70;;
23634;SDS011;11994;51.038;16.974;2023-05-29T03:04:12;9.10;;;5.00;;
23634;SDS011;11994;51.038;16.974;2023-05-29T03:06:37;11.10;;;5.50;;
23634;SDS011;11994;51.038;16.974;2023-05-29T03:09:03;10.70;;;5.50;;
23634;SDS011;11994;51.038;16.974;2023-05-29T03:11:30;9.10;;;5.30;;
23634;SDS011;11994;51.038;16.974;2023-05-29T03:13:56;10.90;;;5.40;;
23634;SDS011;11994;51.038;16.974;2023-05-29T03:16:22;10.80;;;5.30;;
23634;SDS011;11994;51.038;16.974;2023-05-29T03:18:47;11.80;;;5.60;;
23634;SDS011;11994;51.038;16.974;2023-05-29T03:21:13;11.50;;;7.20;;
23634;SDS011;11994;51.038;16.974;2023-05-29T03:23:38;18.90;;;8.20;;
23634;SDS011;11994;51.038;16.974;2023-05-29T03:26:04;17.80;;;8.70;;
23634;SDS011;11994;51.038;16.974;2023-05-29T03:28:30;17.90;;;8.40;;
23634;SDS011;11994;51.038;16.974;2023-05-29T03:30:56;14.00;;;9.10;;
23634;SDS011;11994;51.038;16.974;2023-05-29T03:33:22;14.90;;;8.70;;
23634;SDS011;11994;51.038;16.974;2023-05-29T03:35:47;13.40;;;8.80;;
23634;SDS011;11994;51.038;16.974;2023-05-29T03:38:13;16.40;;;8.50;;
23634;SDS011;11994;51.038;16.974;2023-05-29T03:40:38;16.30;;;8.90;;
23634;SDS011;11994;51.038;16.974;2023-05-29T03:43:03;11.70;;;7.70;;
23634;SDS011;11994;51.038;16.974;2023-05-29T03:45:29;12.70;;;8.30;;
23634;SDS011;11994;51.038;16.974;2023-05-29T03:47:54;18.30;;;8.50;;
23634;SDS011;11994;51.038;16.974;2023-05-29T03:50:20;15.60;;;8.40;;
23634;SDS011;11994;51.038;16.974;2023-05-29T03:52:45;15.30;;;8.70;;
23634;SDS011;11994;51.038;16.974;2023-05-29T03:55:11;14.90;;;8.40;;
23634;SDS011;11994;51.038;16.974;2023-05-29T04:07:28;13.40;;;7.70;;
23634;SDS011;11994;51.038;16.974;2023-05-29T04:09:54;16.20;;;8.40;;
23634;SDS011;11994;51.038;16.974;2023-05-29T04:12:19;15.70;;;8.00;;
23634;SDS011;11994;51.038;16.974;2023-05-29T04:14:45;14.20;;;7.60;;
23634;SDS011;11994;51.038;16.974;2023-05-29T04:27:37;18.10;;;7.80;;
23634;SDS011;11994;51.038;16.974;2023-05-29T04:30:05;16.60;;;7.10;;
23634;SDS011;11994;51.038;16.974;2023-05-29T04:32:32;12.20;;;6.90;;
23634;SDS011;11994;51.038;16.974;2023-05-29T04:34:59;15.10;;;7.20;;
23634;SDS011;11994;51.038;16.974;2023-05-29T04:37:31;16.00;;;7.20;;
23634;SDS011;11994;51.038;16.974;2023-05-29T04:40:02;11.90;;;7.10;;
23634;SDS011;11994;51.038;16.974;2023-05-29T04:42:32;19.40;;;7.40;;
23634;SDS011;11994;51.038;16.974;2023-05-29T04:44:59;15.60;;;8.00;;
23634;SDS011;11994;51.038;16.974;2023-05-29T04:47:25;12.00;;;7.40;;
23634;SDS011;11994;51.038;16.974;2023-05-29T04:49:51;11.30;;;6.90;;
23634;SDS011;11994;51.038;16.974;2023-05-29T04:52:16;12.40;;;6.40;;
23634;SDS011;11994;51.038;16.974;2023-05-29T04:54:42;12.60;;;7.10;;
23634;SDS011;11994;51.038;16.974;2023-05-29T04:57:07;14.60;;;7.00;;
23634;SDS011;11994;51.038;16.974;2023-05-29T04:59:34;11.30;;;7.30;;
23634;SDS011;11994;51.038;16.974;2023-05-29T05:02:00;13.40;;;7.30;;
23634;SDS011;11994;51.038;16.974;2023-05-29T05:04:25;13.60;;;7.90;;
23634;SDS011;11994;51.038;16.974;2023-05-29T05:06:51;11.50;;;7.40;;
23634;SDS011;11994;51.038;16.974;2023-05-29T05:09:16;13.70;;;7.10;;
23634;SDS011;11994;51.038;16.974;2023-05-29T05:11:42;13.00;;;7.90;;
23634;SDS011;11994;51.038;16.974;2023-05-29T05:14:08;12.00;;;6.70;;
23634;SDS011;11994;51.038;16.974;2023-05-29T05:16:33;10.30;;;6.50;;
23634;SDS011;11994;51.038;16.974;2023-05-29T05:18:59;12.00;;;6.50;;
23634;SDS011;11994;51.038;16.974;2023-05-29T05:21:25;14.50;;;6.80;;
23634;SDS011;11994;51.038;16.974;2023-05-29T05:23:50;13.00;;;6.30;;
23634;SDS011;11994;51.038;16.974;2023-05-29T05:26:15;12.40;;;6.80;;
23634;SDS011;11994;51.038;16.974;2023-05-29T05:28:41;15.60;;;6.20;;
23634;SDS011;11994;51.038;16.974;2023-05-29T05:31:06;12.60;;;6.30;;
23634;SDS011;11994;51.038;16.974;2023-05-29T05:33:32;18.80;;;6.40;;
23634;SDS011;11994;51.038;16.974;2023-05-29T05:35:58;17.20;;;6.40;;
23634;SDS011;11994;51.038;16.974;2023-05-29T05:38:23;15.00;;;6.80;;
23634;SDS011;11994;51.038;16.974;2023-05-29T05:40:48;16.10;;;7.00;;
23634;SDS011;11994;51.038;16.974;2023-05-29T05:43:14;15.50;;;6.00;;
23634;SDS011;11994;51.038;16.974;2023-05-29T05:45:39;11.30;;;6.40;;
23634;SDS011;11994;51.038;16.974;2023-05-29T05:48:07;13.60;;;6.00;;
23634;SDS011;11994;51.038;16.974;2023-05-29T05:50:33;10.10;;;5.40;;
23634;SDS011;11994;51.038;16.974;2023-05-29T05:52:59;12.20;;;5.70;;
23634;SDS011;11994;51.038;16.974;2023-05-29T06:05:42;13.00;;;5.40;;
23634;SDS011;11994;51.038;16.974;2023-05-29T06:08:07;8.80;;;5.10;;
23634;SDS011;11994;51.038;16.974;2023-05-29T06:10:33;11.40;;;5.30;;
23634;SDS011;11994;51.038;16.974;2023-05-29T06:12:59;13.00;;;5.70;;
23634;SDS011;11994;51.038;16.974;2023-05-29T06:15:24;14.10;;;5.30;;
23634;SDS011;11994;51.038;16.974;2023-05-29T06:17:50;16.40;;;5.30;;
23634;SDS011;11994;51.038;16.974;2023-05-29T06:20:16;12.00;;;5.00;;
23634;SDS011;11994;51.038;16.974;2023-05-29T06:22:42;11.70;;;5.00;;
23634;SDS011;11994;51.038;16.974;2023-05-29T06:25:08;9.70;;;4.90;;
23634;SDS011;11994;51.038;16.974;2023-05-29T06:27:34;8.90;;;4.80;;
23634;SDS011;11994;51.038;16.974;2023-05-29T06:30:00;8.30;;;4.80;;
23634;SDS011;11994;51.038;16.974;2023-05-29T06:32:25;11.10;;;5.50;;
23634;SDS011;11994;51.038;16.974;2023-05-29T06:34:53;9.70;;;5.00;;
23634;SDS011;11994;51.038;16.974;2023-05-29T06:37:18;10.60;;;5.00;;
23634;SDS011;11994;51.038;16.974;2023-05-29T06:39:45;10.20;;;5.10;;
23634;SDS011;11994;51.038;16.974;2023-05-29T06:42:11;13.20;;;5.10;;
23634;SDS011;11994;51.038;16.974;2023-05-29T06:44:36;12.60;;;4.70;;
23634;SDS011;11994;51.038;16.974;2023-05-29T06:47:01;14.20;;;4.80;;
23634;SDS011;11994;51.038;16.974;2023-05-29T06:49:27;12.10;;;5.00;;
23634;SDS011;11994;51.038;16.974;2023-05-29T06:51:52;14.50;;;4.60;;
23634;SDS011;11994;51.038;16.974;2023-05-29T06:54:18;12.50;;;4.60;;
23634;SDS011;11994;51.038;16.974;2023-05-29T06:56:43;10.20;;;4.40;;
23634;SDS011;11994;51.038;16.974;2023-05-29T06:59:08;11.50;;;4.20;;
23634;SDS011;11994;51.038;16.974;2023-05-29T07:01:34;9.20;;;4.00;;
23634;SDS011;11994;51.038;16.974;2023-05-29T07:03:59;14.60;;;4.40;;
23634;SDS011;11994;51.038;16.974;2023-05-29T07:06:25;15.10;;;4.00;;
23634;SDS011;11994;51.038;16.974;2023-05-29T07:08:50;13.60;;;4.30;;
23634;SDS011;11994;51.038;16.974;2023-05-29T07:11:16;11.40;;;4.50;;
23634;SDS011;11994;51.038;16.974;2023-05-29T07:13:41;16.10;;;4.70;;
23634;SDS011;11994;51.038;16.974;2023-05-29T07:16:07;14.40;;;4.50;;
23634;SDS011;11994;51.038;16.974;2023-05-29T07:18:32;7.90;;;4.10;;
23634;SDS011;11994;51.038;16.974;2023-05-29T07:20:59;19.00;;;5.00;;
23634;SDS011;11994;51.038;16.974;2023-05-29T07:23:25;15.60;;;4.20;;
23634;SDS011;11994;51.038;16.974;2023-05-29T07:36:00;9.30;;;3.10;;
23634;SDS011;11994;51.038;16.974;2023-05-29T07:38:25;10.30;;;3.70;;
23634;SDS011;11994;51.038;16.974;2023-05-29T07:40:50;12.60;;;3.40;;
23634;SDS011;11994;51.038;16.974;2023-05-29T07:43:16;16.70;;;3.10;;
23634;SDS011;11994;51.038;16.974;2023-05-29T07:45:41;8.60;;;2.70;;
23634;SDS011;11994;51.038;16.974;2023-05-29T07:48:07;9.20;;;2.40;;
23634;SDS011;11994;51.038;16.974;2023-05-29T07:50:32;8.40;;;3.10;;
23634;SDS011;11994;51.038;16.974;2023-05-29T07:52:58;12.30;;;3.20;;
23634;SDS011;11994;51.038;16.974;2023-05-29T07:55:25;7.80;;;2.80;;
23634;SDS011;11994;51.038;16.974;2023-05-29T07:57:50;8.00;;;2.50;;
23634;SDS011;11994;51.038;16.974;2023-05-29T08:00:16;9.30;;;2.50;;
23634;SDS011;11994;51.038;16.974;2023-05-29T08:02:41;9.70;;;2.30;;
23634;SDS011;11994;51.038;16.974;2023-05-29T08:05:07;8.30;;;2.10;;
23634;SDS011;11994;51.038;16.974;2023-05-29T08:07:34;8.60;;;2.30;;
23634;SDS011;11994;51.038;16.974;2023-05-29T08:10:00;12.60;;;2.50;;
23634;SDS011;11994;51.038;16.974;2023-05-29T08:12:25;5.90;;;1.80;;
23634;SDS011;11994;51.038;16.974;2023-05-29T08:14:51;11.20;;;2.20;;
23634;SDS011;11994;51.038;16.974;2023-05-29T08:17:16;5.90;;;1.90;;
23634;SDS011;11994;51.038;16.974;2023-05-29T08:19:41;5.70;;;1.90;;
23634;SDS011;11994;51.038;16.974;2023-05-29T08:22:07;6.30;;;2.00;;
23634;SDS011;11994;51.038;16.974;2023-05-29T08:24:32;3.70;;;1.70;;
23634;SDS011;11994;51.038;16.974;2023-05-29T08:26:58;6.10;;;1.70;;
23634;SDS011;11994;51.038;16.974;2023-05-29T08:29:23;6.70;;;1.80;;
23634;SDS011;11994;51.038;16.974;2023-05-29T08:31:49;8.60;;;2.00;;
23634;SDS011;11994;51.038;16.974;2023-05-29T08:34:14;12.00;;;2.20;;
23634;SDS011;11994;51.038;16.974;2023-05-29T08:36:40;5.60;;;2.10;;
23634;SDS011;11994;51.038;16.974;2023-05-29T08:39:06;5.30;;;1.80;;
23634;SDS011;11994;51.038;16.974;2023-05-29T08:41:43;8.50;;;2.00;;
23634;SDS011;11994;51.038;16.974;2023-05-29T08:44:36;8.70;;;2.40;;
23634;SDS011;11994;51.038;16.974;2023-05-29T08:47:04;5.90;;;2.40;;
23634;SDS011;11994;51.038;16.974;2023-05-29T08:59:59;9.50;;;2.30;;
23634;SDS011;11994;51.038;16.974;2023-05-29T09:12:56;9.60;;;2.30;;
23634;SDS011;11994;51.038;16.974;2023-05-29T09:15:22;3.20;;;1.80;;
23634;SDS011;11994;51.038;16.974;2023-05-29T09:17:55;6.90;;;1.90;;
23634;SDS011;11994;51.038;16.974;2023-05-29T09:30:52;3.90;;;1.80;;
23634;SDS011;11994;51.038;16.974;2023-05-29T09:33:17;3.60;;;1.70;;
23634;SDS011;11994;51.038;16.974;2023-05-29T09:35:44;8.30;;;1.90;;
23634;SDS011;11994;51.038;16.974;2023-05-29T09:38:12;5.80;;;2.50;;
23634;SDS011;11994;51.038;16.974;2023-05-29T09:40:41;4.60;;;1.90;;
23634;SDS011;11994;51.038;16.974;2023-05-29T09:43:14;9.20;;;2.40;;
23634;SDS011;11994;51.038;16.974;2023-05-29T09:45:45;5.30;;;1.90;;
23634;SDS011;11994;51.038;16.974;2023-05-29T09:48:13;7.10;;;2.40;;
23634;SDS011;11994;51.038;16.974;2023-05-29T09:50:39;8.00;;;2.30;;
23634;SDS011;11994;51.038;16.974;2023-05-29T09:53:18;8.00;;;2.10;;
23634;SDS011;11994;51.038;16.974;2023-05-29T09:55:48;4.10;;;2.00;;
23634;SDS011;11994;51.038;16.974;2023-05-29T09:58:15;7.10;;;2.10;;
23634;SDS011;11994;51.038;16.974;2023-05-29T10:00:42;5.20;;;2.30;;
23634;SDS011;11994;51.038;16.974;2023-05-29T10:03:08;9.30;;;2.50;;
23634;SDS011;11994;51.038;16.974;2023-05-29T10:05:37;4.40;;;2.00;;
23634;SDS011;11994;51.038;16.974;2023-05-29T10:08:03;4.50;;;1.90;;
23634;SDS011;11994;51.038;16.974;2023-05-29T10:10:30;8.00;;;2.00;;
23634;SDS011;11994;51.038;16.974;2023-05-29T10:13:00;6.10;;;2.30;;
23634;SDS011;11994;51.038;16.974;2023-05-29T10:15:31;8.20;;;2.00;;
23634;SDS011;11994;51.038;16.974;2023-05-29T10:20:57;8.90;;;2.30;;
23634;SDS011;11994;51.038;16.974;2023-05-29T10:23:25;5.30;;;1.90;;
23634;SDS011;11994;51.038;16.974;2023-05-29T10:25:58;10.70;;;2.20;;
23634;SDS011;11994;51.038;16.974;2023-05-29T10:28:32;5.10;;;1.80;;
23634;SDS011;11994;51.038;16.974;2023-05-29T10:38:46;7.50;;;2.60;;
23634;SDS011;11994;51.038;16.974;2023-05-29T10:43:54;5.30;;;2.70;;
23634;SDS011;11994;51.038;16.974;2023-05-29T10:47:06;7.90;;;2.50;;
23634;SDS011;11994;51.038;16.974;2023-05-29T10:49:18;6.70;;;2.30;;
23634;SDS011;11994;51.038;16.974;2023-05-29T10:51:44;8.40;;;2.20;;
23634;SDS011;11994;51.038;16.974;2023-05-29T10:54:10;8.40;;;2.60;;
23634;SDS011;11994;51.038;16.974;2023-05-29T10:56:36;7.30;;;2.50;;
23634;SDS011;11994;51.038;16.974;2023-05-29T10:59:02;5.40;;;2.00;;
23634;SDS011;11994;51.038;16.974;2023-05-29T11:01:31;5.00;;;2.60;;
23634;SDS011;11994;51.038;16.974;2023-05-29T11:04:30;9.80;;;2.50;;
23634;SDS011;11994;51.038;16.974;2023-05-29T11:06:52;6.00;;;2.30;;
23634;SDS011;11994;51.038;16.974;2023-05-29T11:09:36;5.50;;;2.40;;
23634;SDS011;11994;51.038;16.974;2023-05-29T11:12:22;6.20;;;2.30;;
23634;SDS011;11994;51.038;16.974;2023-05-29T11:15:11;6.40;;;2.60;;
23634;SDS011;11994;51.038;16.974;2023-05-29T11:20:05;6.00;;;2.40;;
23634;SDS011;11994;51.038;16.974;2023-05-29T11:25:25;6.00;;;2.30;;
23634;SDS011;11994;51.038;16.974;2023-05-29T11:27:51;8.30;;;2.20;;
23634;SDS011;11994;51.038;16.974;2023-05-29T11:30:17;7.50;;;2.10;;
23634;SDS011;11994;51.038;16.974;2023-05-29T11:32:44;9.20;;;2.70;;
23634;SDS011;11994;51.038;16.974;2023-05-29T11:35:12;8.70;;;2.40;;
23634;SDS011;11994;51.038;16.974;2023-05-29T11:37:39;7.40;;;2.30;;
23634;SDS011;11994;51.038;16.974;2023-05-29T11:40:08;6.20;;;2.20;;
23634;SDS011;11994;51.038;16.974;2023-05-29T11:42:35;8.90;;;2.50;;
23634;SDS011;11994;51.038;16.974;2023-05-29T11:47:56;7.50;;;2.30;;
23634;SDS011;11994;51.038;16.974;2023-05-29T11:50:27;6.30;;;2.30;;
23634;SDS011;11994;51.038;16.974;2023-05-29T11:52:55;4.90;;;2.40;;
23634;SDS011;11994;51.038;16.974;2023-05-29T11:55:22;5.70;;;2.30;;
23634;SDS011;11994;51.038;16.974;2023-05-29T11:58:29;8.00;;;2.20;;
23634;SDS011;11994;51.038;16.974;2023-05-29T12:00:55;5.30;;;2.50;;
23634;SDS011;11994;51.038;16.974;2023-05-29T12:03:20;6.10;;;2.60;;
23634;SDS011;11994;51.038;16.974;2023-05-29T12:05:46;6.80;;;2.20;;
23634;SDS011;11994;51.038;16.974;2023-05-29T12:08:14;8.40;;;2.70;;
23634;SDS011;11994;51.038;16.974;2023-05-29T12:10:49;8.20;;;2.50;;
23634;SDS011;11994;51.038;16.974;2023-05-29T12:13:18;8.40;;;2.30;;
23634;SDS011;11994;51.038;16.974;2023-05-29T12:15:44;4.70;;;2.50;;
23634;SDS011;11994;51.038;16.974;2023-05-29T12:18:10;9.30;;;2.60;;
23634;SDS011;11994;51.038;16.974;2023-05-29T12:20:37;3.50;;;2.10;;
23634;SDS011;11994;51.038;16.974;2023-05-29T12:23:02;7.60;;;2.40;;
23634;SDS011;11994;51.038;16.974;2023-05-29T12:25:28;6.40;;;2.30;;
23634;SDS011;11994;51.038;16.974;2023-05-29T12:27:57;5.70;;;2.20;;
23634;SDS011;11994;51.038;16.974;2023-05-29T12:30:23;5.10;;;2.10;;
23634;SDS011;11994;51.038;16.974;2023-05-29T12:32:52;6.00;;;2.20;;
23634;SDS011;11994;51.038;16.974;2023-05-29T12:40:33;5.60;;;2.50;;
23634;SDS011;11994;51.038;16.974;2023-05-29T12:43:06;5.30;;;2.50;;
23634;SDS011;11994;51.038;16.974;2023-05-29T12:45:35;7.70;;;2.30;;
23634;SDS011;11994;51.038;16.974;2023-05-29T12:52:58;7.10;;;2.40;;
23634;SDS011;11994;51.038;16.974;2023-05-29T12:55:24;6.30;;;2.30;;
23634;SDS011;11994;51.038;16.974;2023-05-29T12:57:51;4.90;;;2.10;;
23634;SDS011;11994;51.038;16.974;2023-05-29T13:00:18;8.20;;;2.30;;
23634;SDS011;11994;51.038;16.974;2023-05-29T13:02:45;5.50;;;2.40;;
23634;SDS011;11994;51.038;16.974;2023-05-29T13:05:12;6.90;;;2.50;;
23634;SDS011;11994;51.038;16.974;2023-05-29T13:07:38;6.60;;;2.10;;
23634;SDS011;11994;51.038;16.974;2023-05-29T13:10:05;5.40;;;2.20;;
23634;SDS011;11994;51.038;16.974;2023-05-29T13:12:31;3.80;;;2.10;;
23634;SDS011;11994;51.038;16.974;2023-05-29T13:14:56;3.50;;;1.90;;
23634;SDS011;11994;51.038;16.974;2023-05-29T13:17:22;5.00;;;1.90;;
23634;SDS011;11994;51.038;16.974;2023-05-29T13:19:47;8.30;;;2.50;;
23634;SDS011;11994;51.038;16.974;2023-05-29T13:22:13;10.90;;;2.40;;
23634;SDS011;11994;51.038;16.974;2023-05-29T13:24:38;6.80;;;2.30;;
23634;SDS011;11994;51.038;16.974;2023-05-29T13:27:04;3.80;;;2.10;;
23634;SDS011;11994;51.038;16.974;2023-05-29T13:29:30;6.20;;;2.50;;
23634;SDS011;11994;51.038;16.974;2023-05-29T13:31:56;5.80;;;2.00;;
23634;SDS011;11994;51.038;16.974;2023-05-29T13:34:22;10.30;;;2.60;;
23634;SDS011;11994;51.038;16.974;2023-05-29T13:36:50;7.40;;;2.30;;
23634;SDS011;11994;51.038;16.974;2023-05-29T13:39:16;4.90;;;2.60;;
23634;SDS011;11994;51.038;16.974;2023-05-29T13:41:41;7.50;;;2.30;;
23634;SDS011;11994;51.038;16.974;2023-05-29T13:44:07;3.60;;;2.20;;
23634;SDS011;11994;51.038;16.974;2023-05-29T13:46:32;4.10;;;2.10;;
23634;SDS011;11994;51.038;16.974;2023-05-29T13:48:58;4.90;;;2.00;;
23634;SDS011;11994;51.038;16.974;2023-05-29T13:51:23;11.80;;;2.30;;
23634;SDS011;11994;51.038;16.974;2023-05-29T13:53:48;5.40;;;2.10;;
23634;SDS011;11994;51.038;16.974;2023-05-29T13:56:14;5.70;;;2.30;;
23634;SDS011;11994;51.038;16.974;2023-05-29T13:58:39;7.20;;;2.20;;
23634;SDS011;11994;51.038;16.974;2023-05-29T14:01:05;7.00;;;2.40;;
23634;SDS011;11994;51.038;16.974;2023-05-29T14:03:30;7.80;;;2.40;;
23634;SDS011;11994;51.038;16.974;2023-05-29T14:05:57;11.30;;;2.40;;
23634;SDS011;11994;51.038;16.974;2023-05-29T14:08:22;3.40;;;1.90;;
23634;SDS011;11994;51.038;16.974;2023-05-29T14:10:48;6.20;;;2.20;;
23634;SDS011;11994;51.038;16.974;2023-05-29T14:13:15;6.00;;;2.30;;
23634;SDS011;11994;51.038;16.974;2023-05-29T14:15:41;5.80;;;2.30;;
23634;SDS011;11994;51.038;16.974;2023-05-29T14:18:06;4.70;;;2.40;;
23634;SDS011;11994;51.038;16.974;2023-05-29T14:20:33;5.90;;;2.50;;
23634;SDS011;11994;51.038;16.974;2023-05-29T14:22:58;5.30;;;2.20;;
23634;SDS011;11994;51.038;16.974;2023-05-29T14:25:24;5.50;;;2.20;;
23634;SDS011;11994;51.038;16.974;2023-05-29T14:27:49;5.20;;;2.20;;
23634;SDS011;11994;51.038;16.974;2023-05-29T14:30:15;7.10;;;2.50;;
23634;SDS011;11994;51.038;16.974;2023-05-29T14:32:40;6.30;;;2.20;;
23634;SDS011;11994;51.038;16.974;2023-05-29T14:35:07;5.00;;;2.20;;
23634;SDS011;11994;51.038;16.974;2023-05-29T14:37:33;5.40;;;2.40;;
23634;SDS011;11994;51.038;16.974;2023-05-29T14:40:39;8.10;;;2.20;;
23634;SDS011;11994;51.038;16.974;2023-05-29T14:43:05;6.30;;;2.60;;
23634;SDS011;11994;51.038;16.974;2023-05-29T14:45:30;8.70;;;2.60;;
23634;SDS011;11994;51.038;16.974;2023-05-29T14:47:56;5.20;;;2.40;;
23634;SDS011;11994;51.038;16.974;2023-05-29T14:50:21;5.60;;;2.20;;
23634;SDS011;11994;51.038;16.974;2023-05-29T14:52:47;7.40;;;2.20;;
23634;SDS011;11994;51.038;16.974;2023-05-29T14:55:13;9.00;;;2.30;;
23634;SDS011;11994;51.038;16.974;2023-05-29T14:57:40;4.50;;;2.00;;
23634;SDS011;11994;51.038;16.974;2023-05-29T15:00:06;5.10;;;2.40;;
23634;SDS011;11994;51.038;16.974;2023-05-29T15:02:34;5.30;;;2.30;;
23634;SDS011;11994;51.038;16.974;2023-05-29T15:05:00;6.10;;;2.20;;
23634;SDS011;11994;51.038;16.974;2023-05-29T15:07:25;6.10;;;2.60;;
23634;SDS011;11994;51.038;16.974;2023-05-29T15:09:51;5.20;;;2.40;;
23634;SDS011;11994;51.038;16.974;2023-05-29T15:12:17;6.10;;;2.40;;
23634;SDS011;11994;51.038;16.974;2023-05-29T15:14:42;8.90;;;2.60;;
23634;SDS011;11994;51.038;16.974;2023-05-29T15:17:08;4.90;;;2.40;;
23634;SDS011;11994;51.038;16.974;2023-05-29T15:19:33;6.10;;;2.60;;
23634;SDS011;11994;51.038;16.974;2023-05-29T15:21:58;6.80;;;2.50;;
23634;SDS011;11994;51.038;16.974;2023-05-29T15:24:24;5.00;;;2.50;;
23634;SDS011;11994;51.038;16.974;2023-05-29T15:37:55;9.50;;;2.80;;
23634;SDS011;11994;51.038;16.974;2023-05-29T15:40:20;9.50;;;2.90;;
23634;SDS011;11994;51.038;16.974;2023-05-29T15:42:46;6.70;;;2.80;;
23634;SDS011;11994;51.038;16.974;2023-05-29T15:45:11;4.90;;;2.40;;
23634;SDS011;11994;51.038;16.974;2023-05-29T15:47:39;5.50;;;2.60;;
23634;SDS011;11994;51.038;16.974;2023-05-29T15:50:05;6.70;;;3.00;;
23634;SDS011;11994;51.038;16.974;2023-05-29T15:52:31;6.90;;;2.60;;
23634;SDS011;11994;51.038;16.974;2023-05-29T15:54:56;7.60;;;2.90;;
23634;SDS011;11994;51.038;16.974;2023-05-29T15:57:21;5.80;;;3.40;;
23634;SDS011;11994;51.038;16.974;2023-05-29T15:59:47;9.40;;;3.00;;
23634;SDS011;11994;51.038;16.974;2023-05-29T16:02:12;7.70;;;2.80;;
23634;SDS011;11994;51.038;16.974;2023-05-29T16:04:38;5.40;;;2.60;;
23634;SDS011;11994;51.038;16.974;2023-05-29T16:07:03;10.60;;;3.10;;
23634;SDS011;11994;51.038;16.974;2023-05-29T16:09:29;6.40;;;2.90;;
23634;SDS011;11994;51.038;16.974;2023-05-29T16:11:55;6.60;;;3.30;;
23634;SDS011;11994;51.038;16.974;2023-05-29T16:14:20;8.50;;;3.10;;
23634;SDS011;11994;51.038;16.974;2023-05-29T16:16:46;8.10;;;3.20;;
23634;SDS011;11994;51.038;16.974;2023-05-29T16:19:11;8.30;;;3.30;;
23634;SDS011;11994;51.038;16.974;2023-05-29T16:21:37;10.10;;;3.10;;
23634;SDS011;11994;51.038;16.974;2023-05-29T16:24:03;5.70;;;2.90;;
23634;SDS011;11994;51.038;16.974;2023-05-29T16:26:29;6.90;;;3.30;;
23634;SDS011;11994;51.038;16.974;2023-05-29T16:29:02;11.30;;;3.40;;
23634;SDS011;11994;51.038;16.974;2023-05-29T16:31:28;7.10;;;3.30;;
23634;SDS011;11994;51.038;16.974;2023-05-29T16:33:54;5.70;;;3.40;;
23634;SDS011;11994;51.038;16.974;2023-05-29T16:36:20;7.60;;;3.10;;
23634;SDS011;11994;51.038;16.974;2023-05-29T16:38:46;6.90;;;3.40;;
23634;SDS011;11994;51.038;16.974;2023-05-29T16:41:12;6.80;;;3.00;;
23634;SDS011;11994;51.038;16.974;2023-05-29T16:43:37;6.30;;;3.50;;
23634;SDS011;11994;51.038;16.974;2023-05-29T16:46:03;7.70;;;3.40;;
23634;SDS011;11994;51.038;16.974;2023-05-29T16:48:32;6.30;;;3.50;;
23634;SDS011;11994;51.038;16.974;2023-05-29T16:50:59;6.00;;;3.10;;
23634;SDS011;11994;51.038;16.974;2023-05-29T16:53:25;7.10;;;3.30;;
23634;SDS011;11994;51.038;16.974;2023-05-29T16:55:50;9.70;;;3.50;;
23634;SDS011;11994;51.038;16.974;2023-05-29T16:58:16;5.80;;;3.30;;
23634;SDS011;11994;51.038;16.974;2023-05-29T17:00:45;7.30;;;3.30;;
23634;SDS011;11994;51.038;16.974;2023-05-29T17:03:12;6.70;;;3.20;;
23634;SDS011;11994;51.038;16.974;2023-05-29T17:05:37;9.20;;;3.80;;